createdAt,value
2019-02-16T00:01:09.697Z,5.12
2019-02-16T00:02:14.752Z,5.60
2019-02-16T00:03:19.695Z,6.05
2019-02-16T00:04:24.713Z,5.72
2019-02-16T00:05:29.922Z,5.25
2019-02-16T00:06:34.993Z,5.37
2019-02-16T00:07:39.919Z,6.50
2019-02-16T00:08:44.850Z,5.67
2019-02-16T00:09:49.760Z,5.70
2019-02-16T00:10:54.754Z,5.87
2019-02-16T00:11:59.662Z,6.30
2019-02-16T00:13:04.830Z,6.12
2019-02-16T00:14:09.719Z,6.15
2019-02-16T00:15:14.627Z,5.78
2019-02-16T00:16:19.560Z,5.58
2019-02-16T00:17:24.508Z,5.75
2019-02-16T00:18:29.651Z,5.67
2019-02-16T00:19:34.705Z,6.00
2019-02-16T00:20:40.066Z,6.58
2019-02-16T00:21:44.972Z,5.50
2019-02-16T00:22:50.635Z,7.37
2019-02-16T00:23:55.669Z,6.03
2019-02-16T00:25:00.593Z,6.25
2019-02-16T00:26:05.576Z,6.37
2019-02-16T00:27:12.381Z,6.25
2019-02-16T00:28:17.313Z,6.15
2019-02-16T00:29:22.601Z,6.55
2019-02-16T00:30:27.924Z,5.42
2019-02-16T00:31:32.930Z,5.67
2019-02-16T00:32:37.914Z,6.50
2019-02-16T00:33:42.842Z,6.33
2019-02-16T00:34:47.766Z,5.95
2019-02-16T00:35:52.690Z,5.95
2019-02-16T00:36:57.644Z,5.83
2019-02-16T00:38:02.531Z,6.37
2019-02-16T00:39:07.603Z,6.67
2019-02-16T00:40:12.552Z,6.22
2019-02-16T00:41:20.343Z,5.60
2019-02-16T00:42:25.299Z,6.35
2019-02-16T00:43:30.232Z,5.75
2019-02-16T00:44:35.198Z,5.50
2019-02-16T00:45:40.160Z,5.75
2019-02-16T00:46:45.742Z,5.30
2019-02-16T00:47:51.046Z,6.12
2019-02-16T00:48:56.386Z,6.17
2019-02-16T00:50:01.308Z,5.60
2019-02-16T00:51:13.391Z,6.85
2019-02-16T00:52:13.004Z,6.40
2019-02-16T00:53:17.944Z,6.45
2019-02-16T00:54:22.913Z,6.30
2019-02-16T00:55:27.844Z,6.90
2019-02-16T00:56:32.811Z,6.00
2019-02-16T00:57:37.874Z,7.33
2019-02-16T00:58:42.800Z,6.25
2019-02-16T00:59:47.788Z,6.25
2019-02-16T01:00:52.805Z,6.67
2019-02-16T01:01:58.149Z,5.90
2019-02-16T01:03:03.168Z,6.55
2019-02-16T01:04:08.102Z,6.65
2019-02-16T01:05:13.024Z,6.33
2019-02-16T01:06:18.205Z,5.72
2019-02-16T01:07:23.217Z,5.78
2019-02-16T01:08:28.144Z,6.67
2019-02-16T01:09:33.359Z,6.53
2019-02-16T01:10:38.328Z,6.08
2019-02-16T01:11:43.301Z,6.28
2019-02-16T01:12:48.388Z,5.80
2019-02-16T01:13:53.621Z,5.83
2019-02-16T01:14:58.564Z,6.85
2019-02-16T01:16:03.622Z,6.67
2019-02-16T01:17:08.598Z,6.70
2019-02-16T01:18:13.795Z,6.22
2019-02-16T01:19:18.834Z,6.62
2019-02-16T01:20:23.817Z,6.30
2019-02-16T01:21:28.697Z,6.92
2019-02-16T01:22:33.618Z,6.80
2019-02-16T01:23:38.607Z,6.28
2019-02-16T01:24:44.101Z,7.33
2019-02-16T01:25:49.408Z,6.30
2019-02-16T01:26:54.414Z,6.03
2019-02-16T01:27:59.958Z,6.45
2019-02-16T01:29:05.056Z,6.12
2019-02-16T01:30:11.323Z,6.53
2019-02-16T01:31:16.221Z,6.75
2019-02-16T01:32:21.154Z,6.95
2019-02-16T01:33:26.133Z,6.40
2019-02-16T01:34:31.355Z,6.65
2019-02-16T01:35:36.339Z,7.80
2019-02-16T01:36:41.867Z,5.85
2019-02-16T01:37:46.797Z,5.75
2019-02-16T01:38:51.781Z,7.12
2019-02-16T01:39:56.698Z,6.50
2019-02-16T01:41:01.670Z,6.30
2019-02-16T01:42:06.618Z,6.00
2019-02-16T01:43:11.561Z,6.55
2019-02-16T01:44:16.841Z,7.10
2019-02-16T01:45:21.857Z,5.53
2019-02-16T01:46:27.157Z,7.33
2019-02-16T01:47:32.019Z,6.62
2019-02-16T01:48:37.008Z,7.00
2019-02-16T01:49:42.159Z,6.45
2019-02-16T01:50:47.090Z,7.15
2019-02-16T01:51:52.022Z,6.22
2019-02-16T01:52:56.975Z,6.92
2019-02-16T01:54:02.015Z,6.60
2019-02-16T01:55:09.413Z,7.08
2019-02-16T01:56:14.399Z,7.30
2019-02-16T01:57:19.990Z,7.78
2019-02-16T01:58:24.920Z,6.47
2019-02-16T01:59:29.942Z,6.20
2019-02-16T02:00:34.851Z,5.97
2019-02-16T02:01:39.774Z,6.00
2019-02-16T02:02:44.732Z,6.55
2019-02-16T02:03:50.000Z,7.03
2019-02-16T02:04:54.904Z,6.60
2019-02-16T02:05:59.968Z,6.78
2019-02-16T02:07:05.275Z,7.30
2019-02-16T02:08:10.249Z,6.85
2019-02-16T02:09:15.225Z,6.97
2019-02-16T02:10:20.207Z,7.53
2019-02-16T02:11:25.277Z,6.87
2019-02-16T02:12:30.650Z,6.65
2019-02-16T02:13:35.661Z,6.37
2019-02-16T02:14:40.894Z,6.72
2019-02-16T02:15:46.258Z,6.75
2019-02-16T02:16:51.231Z,7.33
2019-02-16T02:17:56.546Z,6.20
2019-02-16T02:19:01.801Z,7.10
2019-02-16T02:20:07.303Z,6.37
2019-02-16T02:21:12.294Z,7.08
2019-02-16T02:22:17.321Z,7.10
2019-02-16T02:23:22.223Z,6.65
2019-02-16T02:24:27.183Z,6.78
2019-02-16T02:25:32.080Z,7.17
2019-02-16T02:26:37.407Z,8.13
2019-02-16T02:27:42.426Z,7.78
2019-02-16T02:28:47.361Z,6.53
2019-02-16T02:29:52.345Z,7.45
2019-02-16T02:30:57.386Z,7.10
2019-02-16T02:32:02.299Z,7.15
2019-02-16T02:33:07.207Z,7.05
2019-02-16T02:34:12.145Z,7.20
2019-02-16T02:35:17.144Z,8.45
2019-02-16T02:36:22.375Z,7.22
2019-02-16T02:37:27.288Z,6.97
2019-02-16T02:38:32.206Z,6.80
2019-02-16T02:39:37.160Z,6.50
2019-02-16T02:40:42.124Z,7.25
2019-02-16T02:41:47.343Z,6.47
2019-02-16T02:42:52.415Z,7.17
2019-02-16T02:43:57.407Z,6.95
2019-02-16T02:45:02.568Z,6.87
2019-02-16T02:46:07.640Z,8.20
2019-02-16T02:47:12.566Z,7.05
2019-02-16T02:48:17.538Z,7.12
2019-02-16T02:49:22.642Z,7.25
2019-02-16T02:50:27.965Z,7.30
2019-02-16T02:51:33.214Z,7.75
2019-02-16T02:52:38.557Z,6.67
2019-02-16T02:53:44.142Z,7.05
2019-02-16T02:54:49.126Z,7.40
2019-02-16T02:55:54.110Z,8.70
2019-02-16T02:56:59.034Z,7.05
2019-02-16T02:58:04.020Z,6.83
2019-02-16T02:59:08.990Z,7.17
2019-02-16T03:00:14.142Z,7.37
2019-02-16T03:01:19.383Z,7.62
2019-02-16T03:02:24.274Z,7.37
2019-02-16T03:03:29.434Z,6.05
2019-02-16T03:04:34.416Z,6.35
2019-02-16T03:05:39.339Z,7.33
2019-02-16T03:06:47.626Z,7.33
2019-02-16T03:07:52.531Z,7.08
2019-02-16T03:08:57.789Z,7.47
2019-02-16T03:10:02.952Z,7.40
2019-02-16T03:11:07.875Z,6.58
2019-02-16T03:12:12.872Z,7.50
2019-02-16T03:13:17.777Z,7.80
2019-02-16T03:14:22.672Z,8.25
2019-02-16T03:15:27.594Z,7.05
2019-02-16T03:16:32.538Z,7.08
2019-02-16T03:17:38.299Z,6.65
2019-02-16T03:18:43.317Z,8.65
2019-02-16T03:19:48.588Z,7.35
2019-02-16T03:20:54.267Z,7.08
2019-02-16T03:22:02.635Z,6.92
2019-02-16T03:23:31.315Z,7.70
2019-02-16T03:24:36.598Z,7.58
2019-02-16T03:25:43.489Z,7.78
2019-02-16T03:27:29.838Z,7.03
2019-02-16T03:28:48.679Z,7.00
2019-02-16T03:30:05.480Z,7.17
2019-02-16T03:31:36.077Z,6.47
2019-02-16T03:33:07.963Z,6.97
2019-02-16T03:34:17.295Z,7.20
2019-02-16T03:36:04.441Z,6.90
2019-02-16T03:37:45.430Z,7.05
2019-02-16T03:39:16.898Z,7.50
2019-02-16T03:40:21.911Z,6.55
2019-02-16T03:41:26.882Z,6.40
2019-02-16T03:42:32.164Z,7.20
2019-02-16T03:43:37.341Z,7.60
2019-02-16T03:44:42.351Z,7.75
2019-02-16T03:45:47.352Z,8.08
2019-02-16T03:46:52.329Z,7.35
2019-02-16T03:47:57.232Z,7.62
2019-02-16T03:49:05.287Z,7.20
2019-02-16T03:50:10.827Z,7.58
2019-02-16T03:51:15.737Z,8.25
2019-02-16T03:52:20.677Z,7.83
2019-02-16T03:53:25.645Z,7.30
2019-02-16T03:54:30.671Z,7.90
2019-02-16T03:55:35.581Z,8.58
2019-02-16T03:56:40.608Z,7.47
2019-02-16T03:57:45.848Z,7.92
2019-02-16T03:58:50.794Z,8.73
2019-02-16T03:59:55.711Z,8.35
2019-02-16T04:01:00.756Z,8.50
2019-02-16T04:02:06.152Z,7.75
2019-02-16T04:03:11.156Z,7.85
2019-02-16T04:04:16.068Z,8.58
2019-02-16T04:05:21.075Z,8.78
2019-02-16T04:06:26.052Z,8.05
2019-02-16T04:07:31.351Z,9.15
2019-02-16T04:08:36.535Z,8.18
2019-02-16T04:09:41.457Z,7.70
2019-02-16T04:10:46.359Z,7.42
2019-02-16T04:11:51.409Z,7.95
2019-02-16T04:12:56.349Z,9.33
2019-02-16T04:14:01.240Z,7.75
2019-02-16T04:15:06.355Z,8.28
2019-02-16T04:16:11.361Z,8.25
2019-02-16T04:17:16.302Z,8.05
2019-02-16T04:18:21.193Z,7.75
2019-02-16T04:19:26.084Z,8.35
2019-02-16T04:20:31.049Z,8.43
2019-02-16T04:21:36.240Z,7.33
2019-02-16T04:22:41.136Z,7.92
2019-02-16T04:23:46.074Z,7.20
2019-02-16T04:24:50.993Z,8.78
2019-02-16T04:25:55.919Z,7.70
2019-02-16T04:27:00.841Z,8.10
2019-02-16T04:28:05.863Z,8.38
2019-02-16T04:29:10.925Z,6.95
2019-02-16T04:30:16.218Z,8.13
2019-02-16T04:31:21.408Z,8.60
2019-02-16T04:32:26.412Z,7.55
2019-02-16T04:33:31.302Z,7.97
2019-02-16T04:34:36.335Z,7.95
2019-02-16T04:35:41.483Z,7.92
2019-02-16T04:36:47.117Z,6.83
2019-02-16T04:37:52.110Z,7.58
2019-02-16T04:38:57.038Z,7.37
2019-02-16T04:40:02.267Z,8.13
2019-02-16T04:41:07.474Z,7.80
2019-02-16T04:42:12.388Z,7.37
2019-02-16T04:43:17.643Z,7.92
2019-02-16T04:44:22.550Z,7.75
2019-02-16T04:45:27.653Z,7.95
2019-02-16T04:46:32.635Z,7.83
2019-02-16T04:47:37.536Z,7.05
2019-02-16T04:48:43.152Z,7.62
2019-02-16T04:49:47.999Z,10.13
2019-02-16T04:50:52.909Z,8.33
2019-02-16T04:51:57.884Z,7.92
2019-02-16T04:53:02.924Z,7.75
2019-02-16T04:54:07.819Z,7.47
2019-02-16T04:55:12.826Z,8.45
2019-02-16T04:56:17.756Z,8.35
2019-02-16T04:57:22.685Z,7.97
2019-02-16T04:58:27.853Z,7.55
2019-02-16T04:59:32.855Z,8.45
2019-02-16T05:00:37.757Z,7.62
2019-02-16T05:01:42.755Z,8.33
2019-02-16T05:02:48.322Z,7.85
2019-02-16T05:03:53.714Z,7.90
2019-02-16T05:04:59.026Z,9.28
2019-02-16T05:06:04.047Z,7.85
2019-02-16T05:07:09.018Z,7.92
2019-02-16T05:08:14.284Z,8.65
2019-02-16T05:09:19.198Z,7.37
2019-02-16T05:10:24.180Z,8.03
2019-02-16T05:11:29.121Z,7.97
2019-02-16T05:12:34.972Z,7.60
2019-02-16T05:13:40.464Z,7.75
2019-02-16T05:14:45.596Z,8.15
2019-02-16T05:15:50.867Z,7.75
2019-02-16T05:16:56.257Z,7.58
2019-02-16T05:18:01.923Z,8.18
2019-02-16T05:19:06.902Z,7.62
2019-02-16T05:20:12.507Z,8.25
2019-02-16T05:21:17.527Z,7.42
2019-02-16T05:22:22.534Z,7.47
2019-02-16T05:23:27.528Z,8.50
2019-02-16T05:24:32.412Z,8.28
2019-02-16T05:25:37.322Z,8.68
2019-02-16T05:26:42.644Z,7.15
2019-02-16T05:27:47.563Z,8.25
2019-02-16T05:28:52.500Z,8.25
2019-02-16T05:29:57.408Z,7.67
2019-02-16T05:31:02.324Z,8.13
2019-02-16T05:32:07.301Z,7.85
2019-02-16T05:33:12.298Z,7.95
2019-02-16T05:34:17.558Z,9.15
2019-02-16T05:35:22.844Z,8.45
2019-02-16T05:36:28.125Z,7.70
2019-02-16T05:37:33.057Z,8.75
2019-02-16T05:38:38.238Z,8.53
2019-02-16T05:39:43.201Z,8.23
2019-02-16T05:40:48.163Z,8.50
2019-02-16T05:41:53.103Z,8.80
2019-02-16T05:42:58.167Z,7.83
2019-02-16T05:44:03.155Z,8.98
2019-02-16T05:45:08.379Z,7.70
2019-02-16T05:46:13.916Z,8.13
2019-02-16T05:47:18.899Z,9.03
2019-02-16T05:48:23.821Z,8.15
2019-02-16T05:49:29.411Z,8.20
2019-02-16T05:50:34.425Z,9.60
2019-02-16T05:51:39.317Z,9.15
2019-02-16T05:52:53.763Z,8.08
2019-02-16T05:53:51.139Z,9.40
2019-02-16T05:54:56.354Z,9.05
2019-02-16T05:56:01.378Z,9.05
2019-02-16T05:57:06.340Z,9.13
2019-02-16T05:58:11.238Z,8.45
2019-02-16T05:59:16.219Z,8.90
2019-02-16T06:00:23.739Z,8.43
2019-02-16T06:01:28.842Z,9.18
2019-02-16T06:02:33.784Z,8.80
2019-02-16T06:03:38.740Z,8.85
2019-02-16T06:04:43.677Z,7.72
2019-02-16T06:05:48.600Z,7.85
2019-02-16T06:06:53.679Z,8.20
2019-02-16T06:07:58.686Z,8.80
2019-02-16T06:09:05.187Z,8.03
2019-02-16T06:10:10.313Z,8.20
2019-02-16T06:11:15.557Z,7.87
2019-02-16T06:12:20.563Z,8.28
2019-02-16T06:13:25.727Z,8.95
2019-02-16T06:14:30.668Z,8.68
2019-02-16T06:15:35.925Z,8.10
2019-02-16T06:16:41.088Z,9.23
2019-02-16T06:17:46.015Z,8.83
2019-02-16T06:18:51.073Z,8.10
2019-02-16T06:19:56.038Z,8.60
2019-02-16T06:21:01.918Z,9.15
2019-02-16T06:22:07.052Z,8.90
2019-02-16T06:23:12.024Z,9.30
2019-02-16T06:24:17.288Z,7.78
2019-02-16T06:25:22.402Z,8.78
2019-02-16T06:26:27.297Z,7.42
2019-02-16T06:27:32.380Z,8.10
2019-02-16T06:28:37.463Z,8.53
2019-02-16T06:29:42.476Z,8.80
2019-02-16T06:30:47.306Z,8.10
2019-02-16T06:31:52.578Z,8.43
2019-02-16T06:32:57.891Z,8.28
2019-02-16T06:34:02.882Z,8.95
2019-02-16T06:35:22.704Z,9.65
2019-02-16T06:36:31.467Z,8.73
2019-02-16T06:37:36.409Z,8.05
2019-02-16T06:38:41.352Z,9.75
2019-02-16T06:39:46.673Z,8.55
2019-02-16T06:40:51.733Z,8.53
2019-02-16T06:41:56.726Z,8.80
2019-02-16T06:43:01.689Z,8.65
2019-02-16T06:44:06.738Z,8.70
2019-02-16T06:45:11.641Z,7.87
2019-02-16T06:46:16.516Z,7.25
2019-02-16T06:47:21.446Z,9.60
2019-02-16T06:48:26.383Z,9.58
2019-02-16T06:49:31.369Z,9.15
2019-02-16T06:50:37.177Z,8.43
2019-02-16T06:51:42.309Z,8.75
2019-02-16T06:52:47.612Z,9.63
2019-02-16T06:53:52.622Z,9.23
2019-02-16T06:54:57.961Z,9.30
2019-02-16T06:56:16.055Z,8.98
2019-02-16T06:57:29.136Z,8.13
2019-02-16T06:58:34.143Z,8.53
2019-02-16T06:59:39.091Z,7.37
2019-02-16T07:00:44.124Z,8.53
2019-02-16T07:01:49.040Z,9.28
2019-02-16T07:02:54.013Z,9.40
2019-02-16T07:03:58.997Z,8.70
2019-02-16T07:05:04.387Z,7.87
2019-02-16T07:06:09.295Z,10.05
2019-02-16T07:07:14.192Z,8.75
2019-02-16T07:08:19.696Z,9.55
2019-02-16T07:09:24.669Z,9.18
2019-02-16T07:10:29.576Z,9.03
2019-02-16T07:11:34.667Z,8.75
2019-02-16T07:12:39.632Z,9.38
2019-02-16T07:13:45.067Z,9.60
2019-02-16T07:14:50.091Z,8.65
2019-02-16T07:16:12.583Z,8.15
2019-02-16T07:17:24.816Z,8.90
2019-02-16T07:18:37.340Z,10.53
2019-02-16T07:19:49.164Z,9.28
2019-02-16T07:20:54.158Z,10.55
2019-02-16T07:21:59.386Z,9.10
2019-02-16T07:23:04.398Z,8.55
2019-02-16T07:24:09.919Z,9.10
2019-02-16T07:25:15.206Z,7.80
2019-02-16T07:26:20.392Z,9.28
2019-02-16T07:27:25.472Z,8.43
2019-02-16T07:28:30.500Z,8.80
2019-02-16T07:29:35.415Z,9.58
2019-02-16T07:30:40.665Z,9.53
2019-02-16T07:31:45.858Z,8.93
2019-02-16T07:32:50.921Z,8.75
2019-02-16T07:33:56.505Z,8.98
2019-02-16T07:35:01.703Z,8.85
2019-02-16T07:36:06.706Z,9.63
2019-02-16T07:37:12.075Z,8.38
2019-02-16T07:38:17.190Z,9.13
2019-02-16T07:39:22.733Z,9.28
2019-02-16T07:40:27.767Z,8.40
2019-02-16T07:41:32.730Z,9.48
2019-02-16T07:42:51.523Z,9.05
2019-02-16T07:44:24.732Z,9.95
2019-02-16T07:45:39.160Z,8.68
2019-02-16T07:46:54.988Z,9.20
2019-02-16T07:48:12.518Z,9.33
2019-02-16T07:49:32.499Z,9.58
2019-02-16T07:50:48.343Z,11.35
2019-02-16T07:52:11.341Z,9.73
2019-02-16T07:53:31.864Z,10.60
2019-02-16T07:54:49.410Z,11.45
2019-02-16T07:55:59.807Z,12.13
2019-02-16T07:57:26.711Z,12.15
2019-02-16T07:58:36.442Z,11.90
2019-02-16T08:00:06.892Z,10.50
2019-02-16T08:01:39.341Z,11.93
2019-02-16T08:02:57.365Z,11.12
2019-02-16T08:04:27.485Z,11.22
2019-02-16T08:05:39.715Z,10.25
2019-02-16T08:07:06.622Z,12.85
2019-02-16T08:08:26.507Z,11.00
2019-02-16T08:09:52.705Z,11.63
2019-02-16T08:11:15.619Z,13.10
2019-02-16T08:12:57.755Z,10.32
2019-02-16T08:14:25.372Z,17.92
2019-02-16T08:15:50.679Z,11.80
2019-02-16T08:17:04.460Z,10.38
2019-02-16T08:18:28.455Z,18.92
2019-02-16T08:19:51.171Z,15.30
2019-02-16T08:21:15.142Z,15.32
2019-02-16T08:22:29.418Z,18.55
2019-02-16T08:23:53.768Z,12.60
2019-02-16T08:25:17.249Z,9.95
2019-02-16T08:26:39.964Z,10.43
2019-02-16T08:27:55.618Z,9.18
2019-02-16T08:29:18.455Z,9.05
2019-02-16T08:30:41.028Z,8.70
2019-02-16T08:31:53.081Z,9.73
2019-02-16T08:33:02.823Z,9.05
2019-02-16T08:34:26.784Z,8.73
2019-02-16T08:35:39.756Z,9.55
2019-02-16T08:36:52.959Z,9.00
2019-02-16T08:38:15.816Z,10.30
2019-02-16T08:39:31.986Z,10.58
2019-02-16T08:40:44.578Z,10.43
2019-02-16T08:41:57.199Z,9.40
2019-02-16T08:43:13.505Z,11.53
2019-02-16T08:44:24.182Z,9.23
2019-02-16T08:45:50.895Z,9.88
2019-02-16T08:47:13.887Z,9.63
2019-02-16T08:48:40.780Z,9.08
2019-02-16T08:50:04.700Z,9.40
2019-02-16T08:51:31.794Z,10.53
2019-02-16T08:53:05.251Z,8.58
2019-02-16T08:54:29.207Z,9.28
2019-02-16T08:55:47.098Z,9.65
2019-02-16T08:57:20.365Z,9.03
2019-02-16T08:58:37.428Z,8.95
2019-02-16T09:00:01.413Z,9.53
2019-02-16T09:01:27.438Z,9.48
2019-02-16T09:02:41.248Z,9.70
2019-02-16T09:04:17.339Z,9.35
2019-02-16T09:05:30.752Z,9.70
2019-02-16T09:07:03.687Z,9.53
2019-02-16T09:08:42.742Z,8.20
2019-02-16T09:10:12.722Z,8.95
2019-02-16T09:11:41.089Z,10.15
2019-02-16T09:13:06.112Z,9.13
2019-02-16T09:14:26.489Z,9.70
2019-02-16T09:15:48.341Z,9.13
2019-02-16T09:17:09.100Z,9.93
2019-02-16T09:18:28.997Z,10.18
2019-02-16T09:19:43.857Z,10.72
2019-02-16T09:20:56.438Z,9.45
2019-02-16T09:22:20.376Z,10.03
2019-02-16T09:23:58.667Z,9.43
2019-02-16T09:25:02.144Z,9.70
2019-02-16T09:26:41.617Z,9.60
2019-02-16T09:27:58.192Z,9.90
2019-02-16T09:29:28.453Z,9.85
2019-02-16T09:30:58.456Z,10.38
2019-02-16T09:32:21.211Z,10.88
2019-02-16T09:33:33.378Z,10.25
2019-02-16T09:34:56.538Z,10.10
2019-02-16T09:36:10.193Z,10.80
2019-02-16T09:37:35.949Z,11.00
2019-02-16T09:38:59.055Z,10.48
2019-02-16T09:40:22.389Z,10.50
2019-02-16T09:41:42.670Z,10.32
2019-02-16T09:42:56.652Z,9.55
2019-02-16T09:44:15.063Z,10.65
2019-02-16T09:45:51.428Z,10.98
2019-02-16T09:47:12.899Z,10.95
2019-02-16T09:48:25.756Z,10.80
2019-02-16T09:49:40.117Z,11.30
2019-02-16T09:50:59.081Z,9.90
2019-02-16T09:52:23.039Z,10.68
2019-02-16T09:53:52.815Z,11.43
2019-02-16T09:55:25.941Z,10.00
2019-02-16T09:56:44.696Z,10.90
2019-02-16T09:58:01.921Z,10.75
2019-02-16T09:59:29.531Z,11.33
2019-02-16T10:00:40.738Z,11.03
2019-02-16T10:02:10.663Z,10.32
2019-02-16T10:03:37.955Z,10.55
2019-02-16T10:05:14.067Z,10.60
2019-02-16T10:06:28.162Z,10.72
2019-02-16T10:07:50.907Z,11.15
2019-02-16T10:09:05.924Z,11.30
2019-02-16T10:10:39.300Z,10.78
2019-02-16T10:11:50.481Z,11.63
2019-02-16T10:13:19.878Z,10.98
2019-02-16T10:14:46.908Z,13.35
2019-02-16T10:16:20.144Z,14.70
2019-02-16T10:17:33.780Z,13.93
2019-02-16T10:19:03.650Z,11.78
2019-02-16T10:20:27.641Z,11.53
2019-02-16T10:21:57.347Z,11.50
2019-02-16T10:23:17.549Z,14.47
2019-02-16T10:24:39.942Z,11.60
2019-02-16T10:26:06.672Z,10.82
2019-02-16T10:27:18.364Z,12.75
2019-02-16T10:28:45.939Z,11.83
2019-02-16T10:30:02.176Z,11.75
2019-02-16T10:31:25.264Z,12.23
2019-02-16T10:32:41.221Z,11.08
2019-02-16T10:33:59.710Z,11.45
2019-02-16T10:35:23.963Z,11.40
2019-02-16T10:36:36.518Z,11.83
2019-02-16T10:38:03.480Z,12.25
2019-02-16T10:39:21.974Z,12.15
2019-02-16T10:40:46.088Z,12.53
2019-02-16T10:42:12.456Z,11.33
2019-02-16T10:43:35.810Z,11.97
2019-02-16T10:44:46.059Z,12.98
2019-02-16T10:46:09.154Z,11.53
2019-02-16T10:47:32.408Z,12.03
2019-02-16T10:48:56.378Z,11.20
2019-02-16T10:50:18.197Z,13.10
2019-02-16T10:51:38.881Z,12.00
2019-02-16T10:53:05.069Z,12.37
2019-02-16T10:54:31.935Z,12.07
2019-02-16T10:55:53.832Z,12.78
2019-02-16T10:57:30.164Z,12.70
2019-02-16T10:58:44.786Z,11.15
2019-02-16T11:00:07.750Z,12.45
2019-02-16T11:01:25.999Z,13.10
2019-02-16T11:02:53.610Z,12.10
2019-02-16T11:04:08.500Z,13.18
2019-02-16T11:05:31.555Z,12.05
2019-02-16T11:06:47.695Z,12.03
2019-02-16T11:08:11.647Z,11.08
2019-02-16T11:09:23.998Z,11.00
2019-02-16T11:10:45.704Z,10.82
2019-02-16T11:12:12.737Z,11.73
2019-02-16T11:13:24.912Z,12.73
2019-02-16T11:14:49.352Z,12.63
2019-02-16T11:16:11.959Z,11.22
2019-02-16T11:17:55.827Z,12.10
2019-02-16T11:19:19.958Z,11.35
2019-02-16T11:20:53.443Z,11.63
2019-02-16T11:22:13.399Z,12.07
2019-02-16T11:23:33.116Z,11.25
2019-02-16T11:24:56.298Z,12.30
2019-02-16T11:26:11.567Z,10.93
2019-02-16T11:27:34.721Z,12.65
2019-02-16T11:29:11.165Z,11.08
2019-02-16T11:30:45.076Z,12.47
2019-02-16T11:31:58.753Z,11.53
2019-02-16T11:33:38.297Z,11.55
2019-02-16T11:34:56.014Z,12.18
2019-02-16T11:36:14.055Z,10.98
2019-02-16T11:37:39.997Z,11.12
2019-02-16T11:39:03.300Z,11.55
2019-02-16T11:40:13.676Z,12.53
2019-02-16T11:41:24.165Z,11.68
2019-02-16T11:42:42.125Z,11.80
2019-02-16T11:43:57.119Z,11.40
2019-02-16T11:45:20.237Z,11.97
2019-02-16T11:46:36.677Z,11.93
2019-02-16T11:48:00.776Z,11.70
2019-02-16T11:49:25.222Z,11.50
2019-02-16T11:50:58.493Z,10.72
2019-02-16T11:52:34.586Z,12.30
2019-02-16T11:53:55.704Z,11.65
2019-02-16T11:55:12.944Z,11.95
2019-02-16T11:56:37.301Z,12.13
2019-02-16T11:57:48.701Z,11.15
2019-02-16T11:59:15.383Z,12.68
2019-02-16T12:00:43.387Z,12.80
2019-02-16T12:02:06.261Z,12.07
2019-02-16T12:03:35.032Z,13.10
2019-02-16T12:04:46.727Z,11.10
2019-02-16T12:05:58.103Z,12.10
2019-02-16T12:07:13.487Z,11.93
2019-02-16T12:08:36.514Z,12.37
2019-02-16T12:09:49.457Z,12.07
2019-02-16T12:11:15.872Z,11.20
2019-02-16T12:12:38.982Z,11.22
2019-02-16T12:14:01.890Z,12.53
2019-02-16T12:15:32.263Z,12.73
2019-02-16T12:17:08.483Z,12.50
2019-02-16T12:18:28.369Z,12.58
2019-02-16T12:19:58.322Z,11.50
2019-02-16T12:21:25.444Z,12.43
2019-02-16T12:22:38.305Z,13.32
2019-02-16T12:24:02.311Z,10.98
2019-02-16T12:25:25.793Z,12.88
2019-02-16T12:26:49.816Z,13.95
2019-02-16T12:28:23.109Z,13.43
2019-02-16T12:29:49.910Z,14.07
2019-02-16T12:31:21.404Z,13.35
2019-02-16T12:32:35.949Z,13.70
2019-02-16T12:34:09.088Z,11.90
2019-02-16T12:35:33.370Z,13.95
2019-02-16T12:36:49.967Z,12.33
2019-02-16T12:37:59.931Z,13.10
2019-02-16T12:39:11.142Z,12.85
2019-02-16T12:40:22.572Z,12.73
2019-02-16T12:42:02.290Z,14.33
2019-02-16T12:43:25.130Z,13.28
2019-02-16T12:44:45.882Z,13.88
2019-02-16T12:46:08.482Z,14.10
2019-02-16T12:47:31.570Z,13.32
2019-02-16T12:48:47.110Z,15.18
2019-02-16T12:49:59.485Z,12.98
2019-02-16T12:51:20.692Z,13.32
2019-02-16T12:52:43.680Z,13.90
2019-02-16T12:53:58.711Z,13.70
2019-02-16T12:55:25.652Z,15.75
2019-02-16T12:56:55.550Z,13.13
2019-02-16T12:58:06.625Z,13.78
2019-02-16T12:59:49.173Z,13.48
2019-02-16T13:01:02.461Z,13.62
2019-02-16T13:02:29.409Z,12.15
2019-02-16T13:03:43.625Z,12.85
2019-02-16T13:04:57.051Z,13.93
2019-02-16T13:06:33.307Z,14.15
2019-02-16T13:07:43.786Z,14.23
2019-02-16T13:08:59.735Z,15.50
2019-02-16T13:10:22.890Z,12.00
2019-02-16T13:11:45.995Z,14.23
2019-02-16T13:13:07.491Z,13.70
2019-02-16T13:14:22.188Z,13.55
2019-02-16T13:15:58.302Z,12.90
2019-02-16T13:17:22.586Z,13.28
2019-02-16T13:18:33.689Z,13.72
2019-02-16T13:20:00.988Z,12.10
2019-02-16T13:21:18.741Z,13.25
2019-02-16T13:22:35.661Z,13.60
2019-02-16T13:23:55.628Z,12.68
2019-02-16T13:25:31.390Z,14.23
2019-02-16T13:27:07.321Z,12.10
2019-02-16T13:28:24.132Z,14.00
2019-02-16T13:29:46.722Z,16.73
2019-02-16T13:31:14.076Z,13.70
2019-02-16T13:32:29.197Z,14.50
2019-02-16T13:33:56.385Z,12.45
2019-02-16T13:35:26.155Z,14.25
2019-02-16T13:36:41.268Z,13.32
2019-02-16T13:37:59.323Z,15.00
2019-02-16T13:39:24.935Z,13.03
2019-02-16T13:40:48.873Z,14.85
2019-02-16T13:42:28.409Z,14.20
2019-02-16T13:43:52.834Z,13.43
2019-02-16T13:45:03.686Z,13.13
2019-02-16T13:46:26.349Z,14.98
2019-02-16T13:47:36.769Z,13.65
2019-02-16T13:48:52.958Z,12.95
2019-02-16T13:50:12.575Z,13.93
2019-02-16T13:51:36.038Z,14.73
2019-02-16T13:53:02.833Z,14.87
2019-02-16T13:54:19.281Z,14.68
2019-02-16T13:55:33.487Z,14.35
2019-02-16T13:56:44.029Z,13.60
2019-02-16T13:58:07.559Z,16.20
2019-02-16T13:59:34.883Z,13.45
2019-02-16T14:00:44.726Z,14.20
2019-02-16T14:02:18.128Z,17.05
2019-02-16T14:03:46.423Z,14.65
2019-02-16T14:05:13.418Z,14.13
2019-02-16T14:06:40.122Z,15.00
2019-02-16T14:07:59.506Z,14.35
2019-02-16T14:09:13.824Z,14.23
2019-02-16T14:10:27.119Z,15.38
2019-02-16T14:11:53.911Z,13.75
2019-02-16T14:13:07.137Z,15.90
2019-02-16T14:14:31.158Z,14.75
2019-02-16T14:15:57.283Z,16.30
2019-02-16T14:17:21.676Z,15.40
2019-02-16T14:18:26.665Z,16.15
2019-02-16T14:19:31.586Z,15.23
2019-02-16T14:20:38.597Z,16.32
2019-02-16T14:21:43.485Z,15.05
2019-02-16T14:22:48.729Z,15.48
2019-02-16T14:23:54.297Z,16.32
2019-02-16T14:25:01.260Z,14.35
2019-02-16T14:26:06.192Z,16.27
2019-02-16T14:27:11.110Z,14.85
2019-02-16T14:28:16.192Z,15.53
2019-02-16T14:29:21.118Z,14.20
2019-02-16T14:30:26.087Z,16.00
2019-02-16T14:31:31.022Z,18.45
2019-02-16T14:32:36.115Z,15.35
2019-02-16T14:33:41.379Z,15.65
2019-02-16T14:34:46.662Z,15.23
2019-02-16T14:35:51.658Z,15.20
2019-02-16T14:36:56.606Z,17.40
2019-02-16T14:38:38.867Z,14.85
2019-02-16T14:39:43.944Z,13.05
2019-02-16T14:40:49.343Z,15.18
2019-02-16T14:41:54.598Z,15.55
2019-02-16T14:43:01.625Z,15.32
2019-02-16T14:44:06.831Z,14.75
2019-02-16T14:45:12.719Z,15.98
2019-02-16T14:46:17.688Z,18.25
2019-02-16T14:47:22.995Z,15.85
2019-02-16T14:48:28.061Z,14.50
2019-02-16T14:49:32.971Z,15.38
2019-02-16T14:50:38.205Z,16.20
2019-02-16T14:51:43.150Z,16.20
2019-02-16T14:52:48.677Z,14.35
2019-02-16T14:53:53.689Z,13.93
2019-02-16T14:54:58.685Z,14.90
2019-02-16T14:56:03.630Z,15.98
2019-02-16T14:57:08.876Z,15.03
2019-02-16T14:58:14.208Z,13.90
2019-02-16T14:59:19.529Z,14.05
2019-02-16T15:00:24.510Z,15.70
2019-02-16T15:01:29.473Z,15.10
2019-02-16T15:02:34.402Z,14.35
2019-02-16T15:03:39.425Z,17.05
2019-02-16T15:04:44.371Z,14.35
2019-02-16T15:05:49.422Z,14.87
2019-02-16T15:06:54.630Z,14.93
2019-02-16T15:07:59.615Z,15.13
2019-02-16T15:09:05.515Z,14.98
2019-02-16T15:10:10.979Z,14.68
2019-02-16T15:11:16.303Z,12.63
2019-02-16T15:12:21.714Z,14.58
2019-02-16T15:13:26.686Z,13.78
2019-02-16T15:14:31.865Z,14.45
2019-02-16T15:15:36.841Z,16.65
2019-02-16T15:16:41.753Z,15.85
2019-02-16T15:17:46.824Z,14.93
2019-02-16T15:18:52.630Z,15.90
2019-02-16T15:19:57.969Z,15.20
2019-02-16T15:21:03.362Z,13.95
2019-02-16T15:22:08.291Z,14.25
2019-02-16T15:23:13.304Z,14.13
2019-02-16T15:24:18.230Z,16.00
2019-02-16T15:25:23.186Z,14.15
2019-02-16T15:26:28.938Z,15.10
2019-02-16T15:27:34.046Z,16.32
2019-02-16T15:28:39.001Z,15.98
2019-02-16T15:29:43.956Z,15.30
2019-02-16T15:30:49.245Z,13.98
2019-02-16T15:31:54.132Z,13.60
2019-02-16T15:32:59.592Z,12.93
2019-02-16T15:34:05.244Z,13.75
2019-02-16T15:35:11.029Z,14.83
2019-02-16T15:36:23.624Z,13.28
2019-02-16T15:37:22.624Z,13.68
2019-02-16T15:38:27.597Z,13.00
2019-02-16T15:39:32.595Z,13.15
2019-02-16T15:40:37.545Z,14.13
2019-02-16T15:41:42.501Z,13.80
2019-02-16T15:42:47.643Z,12.90
2019-02-16T15:43:52.664Z,13.18